sensor_id;sensor_type;location;lat;lon;timestamp;temperature;humidity
15036;DHT22;7615;48.574;13.474;2023-04-09T07:00:40;6.30;99.90
15036;DHT22;7615;48.574;13.474;2023-04-09T07:03:13;6.30;99.90
15036;DHT22;7615;48.574;13.474;2023-04-09T07:05:40;6.40;99.90
15036;DHT22;7615;48.574;13.474;2023-04-09T07:08:08;6.40;99.90
15036;DHT22;7615;48.574;13.474;2023-04-09T07:10:35;6.40;99.90
15036;DHT22;7615;48.574;13.474;2023-04-09T07:13:02;6.40;99.90
15036;DHT22;7615;48.574;13.474;2023-04-09T07:15:35;6.30;99.90
15036;DHT22;7615;48.574;13.474;2023-04-09T07:18:07;6.50;99.90
15036;DHT22;7615;48.574;13.474;2023-04-09T07:20:34;6.70;99.90
15036;DHT22;7615;48.574;13.474;2023-04-09T07:23:01;6.70;99.90
15036;DHT22;7615;48.574;13.474;2023-04-09T07:30:25;6.70;99.90
15036;DHT22;7615;48.574;13.474;2023-04-09T07:35:22;6.80;99.90
15036;DHT22;7615;48.574;13.474;2023-04-09T07:42:45;6.80;99.90
15036;DHT22;7615;48.574;13.474;2023-04-09T07:47:41;6.80;99.90
15036;DHT22;7615;48.574;13.474;2023-04-09T07:50:14;6.80;99.90
15036;DHT22;7615;48.574;13.474;2023-04-09T07:52:43;6.90;99.90
15036;DHT22;7615;48.574;13.474;2023-04-09T07:57:38;7.10;99.90
15036;DHT22;7615;48.574;13.474;2023-04-09T08:00:09;7.10;99.90
15036;DHT22;7615;48.574;13.474;2023-04-09T08:02:36;7.10;99.90
15036;DHT22;7615;48.574;13.474;2023-04-09T08:05:04;7.20;99.90
15036;DHT22;7615;48.574;13.474;2023-04-09T08:07:35;7.30;99.90
15036;DHT22;7615;48.574;13.474;2023-04-09T08:10:05;7.40;99.90
15036;DHT22;7615;48.574;13.474;2023-04-09T08:12:38;7.30;99.90
15036;DHT22;7615;48.574;13.474;2023-04-09T08:15:06;7.30;99.90
15036;DHT22;7615;48.574;13.474;2023-04-09T08:17:33;7.10;99.90
15036;DHT22;7615;48.574;13.474;2023-04-09T08:22:29;7.00;99.90
15036;DHT22;7615;48.574;13.474;2023-04-09T08:27:25;7.30;99.90
15036;DHT22;7615;48.574;13.474;2023-04-09T08:32:20;7.50;99.90
15036;DHT22;7615;48.574;13.474;2023-04-09T08:44:39;7.60;99.90
15036;DHT22;7615;48.574;13.474;2023-04-09T08:47:07;7.60;99.90
15036;DHT22;7615;48.574;13.474;2023-04-09T08:52:03;7.50;99.90
15036;DHT22;7615;48.574;13.474;2023-04-09T08:54:31;7.90;99.90
15036;DHT22;7615;48.574;13.474;2023-04-09T08:56:58;8.00;99.90
15036;DHT22;7615;48.574;13.474;2023-04-09T08:59:26;8.10;99.90
15036;DHT22;7615;48.574;13.474;2023-04-09T09:02:09;8.20;99.90
15036;DHT22;7615;48.574;13.474;2023-04-09T09:04:46;8.40;99.90
15036;DHT22;7615;48.574;13.474;2023-04-09T09:07:14;8.40;99.90
15036;DHT22;7615;48.574;13.474;2023-04-09T09:09:51;8.50;99.90
15036;DHT22;7615;48.574;13.474;2023-04-09T09:12:36;8.60;99.90
15036;DHT22;7615;48.574;13.474;2023-04-09T09:15:05;10.00;99.90
15036;DHT22;7615;48.574;13.474;2023-04-09T09:17:52;8.60;99.90
15036;DHT22;7615;48.574;13.474;2023-04-09T09:20:21;8.80;99.90
15036;DHT22;7615;48.574;13.474;2023-04-09T09:22:50;8.70;99.90
15036;DHT22;7615;48.574;13.474;2023-04-09T09:25:18;8.60;99.90
15036;DHT22;7615;48.574;13.474;2023-04-09T09:27:48;8.60;99.90
15036;DHT22;7615;48.574;13.474;2023-04-09T09:30:21;9.10;99.90
15036;DHT22;7615;48.574;13.474;2023-04-09T09:32:53;8.70;99.90
15036;DHT22;7615;48.574;13.474;2023-04-09T09:35:24;9.10;99.90
15036;DHT22;7615;48.574;13.474;2023-04-09T09:38:01;8.80;99.90
15036;DHT22;7615;48.574;13.474;2023-04-09T09:40:30;8.80;99.90
15036;DHT22;7615;48.574;13.474;2023-04-09T09:43:00;9.10;99.90
15036;DHT22;7615;48.574;13.474;2023-04-09T09:48:48;11.70;99.90
15036;DHT22;7615;48.574;13.474;2023-04-09T09:51:16;9.10;99.90
15036;DHT22;7615;48.574;13.474;2023-04-09T09:53:44;9.20;99.90
15036;DHT22;7615;48.574;13.474;2023-04-09T09:56:14;9.20;99.90
15036;DHT22;7615;48.574;13.474;2023-04-09T09:58:47;9.20;99.90
15036;DHT22;7615;48.574;13.474;2023-04-09T10:01:18;9.20;99.90
15036;DHT22;7615;48.574;13.474;2023-04-09T10:03:51;9.40;99.90
15036;DHT22;7615;48.574;13.474;2023-04-09T10:06:18;9.20;99.90
15036;DHT22;7615;48.574;13.474;2023-04-09T10:08:48;9.60;99.90
15036;DHT22;7615;48.574;13.474;2023-04-09T10:11:17;10.90;99.90
15036;DHT22;7615;48.574;13.474;2023-04-09T10:16:57;9.60;99.90
15036;DHT22;7615;48.574;13.474;2023-04-09T10:19:28;9.70;99.90
15036;DHT22;7615;48.574;13.474;2023-04-09T10:22:00;10.80;99.90
15036;DHT22;7615;48.574;13.474;2023-04-09T10:24:33;10.00;99.90
15036;DHT22;7615;48.574;13.474;2023-04-09T10:27:12;10.10;99.90
15036;DHT22;7615;48.574;13.474;2023-04-09T10:29:42;9.60;99.90
15036;DHT22;7615;48.574;13.474;2023-04-09T10:32:10;9.70;99.90
15036;DHT22;7615;48.574;13.474;2023-04-09T10:37:50;9.70;99.90
15036;DHT22;7615;48.574;13.474;2023-04-09T10:40:18;9.10;99.90
15036;DHT22;7615;48.574;13.474;2023-04-09T10:42:46;10.00;99.90
15036;DHT22;7615;48.574;13.474;2023-04-09T10:47:48;9.40;99.90
15036;DHT22;7615;48.574;13.474;2023-04-09T10:50:19;9.50;99.90
15036;DHT22;7615;48.574;13.474;2023-04-09T10:52:52;9.60;99.90
15036;DHT22;7615;48.574;13.474;2023-04-09T10:55:33;9.60;99.90
15036;DHT22;7615;48.574;13.474;2023-04-09T10:58:02;9.90;99.90
15036;DHT22;7615;48.574;13.474;2023-04-09T11:03:18;10.40;99.90
15036;DHT22;7615;48.574;13.474;2023-04-09T11:05:49;10.80;99.90
15036;DHT22;7615;48.574;13.474;2023-04-09T11:08:19;10.90;99.90
15036;DHT22;7615;48.574;13.474;2023-04-09T11:10:49;10.80;99.90
15036;DHT22;7615;48.574;13.474;2023-04-09T11:13:19;10.90;99.90
15036;DHT22;7615;48.574;13.474;2023-04-09T11:15:47;11.00;99.90
15036;DHT22;7615;48.574;13.474;2023-04-09T11:18:19;11.10;99.90
15036;DHT22;7615;48.574;13.474;2023-04-09T11:23:16;11.30;99.90
15036;DHT22;7615;48.574;13.474;2023-04-09T11:25:48;11.50;99.90
15036;DHT22;7615;48.574;13.474;2023-04-09T11:28:16;11.50;99.90
15036;DHT22;7615;48.574;13.474;2023-04-09T11:30:44;11.20;99.90
15036;DHT22;7615;48.574;13.474;2023-04-09T11:35:40;11.40;99.90
15036;DHT22;7615;48.574;13.474;2023-04-09T11:38:08;11.20;99.90
15036;DHT22;7615;48.574;13.474;2023-04-09T11:40:36;11.30;99.90
15036;DHT22;7615;48.574;13.474;2023-04-09T11:43:12;11.30;99.90
15036;DHT22;7615;48.574;13.474;2023-04-09T11:45:40;10.90;99.90
15036;DHT22;7615;48.574;13.474;2023-04-09T11:48:08;10.80;99.90
15036;DHT22;7615;48.574;13.474;2023-04-09T11:50:35;10.90;99.90
15036;DHT22;7615;48.574;13.474;2023-04-09T11:53:16;11.10;99.90
15036;DHT22;7615;48.574;13.474;2023-04-09T11:55:46;11.20;99.90
15036;DHT22;7615;48.574;13.474;2023-04-09T11:58:16;11.30;99.90
15036;DHT22;7615;48.574;13.474;2023-04-09T12:00:43;11.60;99.90
15036;DHT22;7615;48.574;13.474;2023-04-09T12:03:11;11.50;99.90
15036;DHT22;7615;48.574;13.474;2023-04-09T12:05:45;11.60;99.90
15036;DHT22;7615;48.574;13.474;2023-04-09T12:08:14;12.00;99.90
15036;DHT22;7615;48.574;13.474;2023-04-09T12:10:43;11.50;99.90
15036;DHT22;7615;48.574;13.474;2023-04-09T12:13:10;11.40;99.90
15036;DHT22;7615;48.574;13.474;2023-04-09T12:15:40;11.60;99.90
15036;DHT22;7615;48.574;13.474;2023-04-09T12:18:09;11.60;99.90
15036;DHT22;7615;48.574;13.474;2023-04-09T12:20:37;12.00;99.90
15036;DHT22;7615;48.574;13.474;2023-04-09T12:23:07;11.70;99.90
15036;DHT22;7615;48.574;13.474;2023-04-09T12:25:35;11.80;99.90
15036;DHT22;7615;48.574;13.474;2023-04-09T12:28:06;11.90;99.90
15036;DHT22;7615;48.574;13.474;2023-04-09T12:30:34;12.00;99.90
15036;DHT22;7615;48.574;13.474;2023-04-09T12:33:05;12.10;99.90
15036;DHT22;7615;48.574;13.474;2023-04-09T12:35:33;12.10;99.90
15036;DHT22;7615;48.574;13.474;2023-04-09T12:38:02;12.40;99.90
15036;DHT22;7615;48.574;13.474;2023-04-09T12:40:31;12.60;99.90
15036;DHT22;7615;48.574;13.474;2023-04-09T12:45:26;13.10;99.90
15036;DHT22;7615;48.574;13.474;2023-04-09T12:47:54;13.30;99.90
15036;DHT22;7615;48.574;13.474;2023-04-09T12:50:23;13.30;99.90
15036;DHT22;7615;48.574;13.474;2023-04-09T12:55:19;12.70;99.90
15036;DHT22;7615;48.574;13.474;2023-04-09T12:57:49;12.80;99.90
15036;DHT22;7615;48.574;13.474;2023-04-09T13:02:44;11.60;99.90
15036;DHT22;7615;48.574;13.474;2023-04-09T13:07:40;10.90;99.90
15036;DHT22;7615;48.574;13.474;2023-04-09T13:10:08;11.20;99.90
15036;DHT22;7615;48.574;13.474;2023-04-09T13:12:42;10.70;99.90
15036;DHT22;7615;48.574;13.474;2023-04-09T13:15:09;10.50;99.90
15036;DHT22;7615;48.574;13.474;2023-04-09T13:17:37;10.40;99.90
15036;DHT22;7615;48.574;13.474;2023-04-09T13:20:06;10.30;99.90
15036;DHT22;7615;48.574;13.474;2023-04-09T13:22:33;10.50;99.90
15036;DHT22;7615;48.574;13.474;2023-04-09T13:25:04;10.30;99.90
15036;DHT22;7615;48.574;13.474;2023-04-09T13:27:32;10.30;99.90
15036;DHT22;7615;48.574;13.474;2023-04-09T13:29:59;10.40;99.90
15036;DHT22;7615;48.574;13.474;2023-04-09T13:32:28;10.30;99.90
15036;DHT22;7615;48.574;13.474;2023-04-09T13:34:55;10.50;99.90
15036;DHT22;7615;48.574;13.474;2023-04-09T13:37:23;10.90;99.90
15036;DHT22;7615;48.574;13.474;2023-04-09T13:39:50;11.20;99.90
15036;DHT22;7615;48.574;13.474;2023-04-09T13:42:19;11.50;99.90
15036;DHT22;7615;48.574;13.474;2023-04-09T13:44:51;11.70;99.90
15036;DHT22;7615;48.574;13.474;2023-04-09T13:47:22;11.60;99.90
15036;DHT22;7615;48.574;13.474;2023-04-09T13:49:49;11.90;99.90
15036;DHT22;7615;48.574;13.474;2023-04-09T13:52:17;12.20;99.90
15036;DHT22;7615;48.574;13.474;2023-04-09T13:54:48;12.50;99.90
15036;DHT22;7615;48.574;13.474;2023-04-09T13:57:19;13.00;99.90
15036;DHT22;7615;48.574;13.474;2023-04-09T14:07:15;13.80;99.90
15036;DHT22;7615;48.574;13.474;2023-04-09T14:09:43;13.80;99.90
15036;DHT22;7615;48.574;13.474;2023-04-09T14:12:10;13.30;99.90
15036;DHT22;7615;48.574;13.474;2023-04-09T14:14:40;13.10;99.90
15036;DHT22;7615;48.574;13.474;2023-04-09T14:17:07;12.90;99.90
15036;DHT22;7615;48.574;13.474;2023-04-09T20:41:41;7.50;99.90
15036;DHT22;7615;48.574;13.474;2023-04-09T20:44:10;7.80;99.90
15036;DHT22;7615;48.574;13.474;2023-04-09T20:46:37;7.90;99.90
15036;DHT22;7615;48.574;13.474;2023-04-09T20:49:05;8.10;99.90
15036;DHT22;7615;48.574;13.474;2023-04-09T20:51:32;8.00;99.90
15036;DHT22;7615;48.574;13.474;2023-04-09T20:54:11;8.00;99.90
15036;DHT22;7615;48.574;13.474;2023-04-09T20:56:38;8.00;99.90
15036;DHT22;7615;48.574;13.474;2023-04-09T20:59:08;8.00;99.90
15036;DHT22;7615;48.574;13.474;2023-04-09T21:01:36;6.40;99.90
15036;DHT22;7615;48.574;13.474;2023-04-09T21:04:03;7.90;99.90
15036;DHT22;7615;48.574;13.474;2023-04-09T21:06:39;8.00;99.90
15036;DHT22;7615;48.574;13.474;2023-04-09T21:09:08;8.20;99.90
15036;DHT22;7615;48.574;13.474;2023-04-09T21:11:45;7.90;99.90
15036;DHT22;7615;48.574;13.474;2023-04-09T21:14:14;7.90;99.90
15036;DHT22;7615;48.574;13.474;2023-04-09T21:16:41;8.20;99.90
15036;DHT22;7615;48.574;13.474;2023-04-09T21:19:10;8.00;99.90
15036;DHT22;7615;48.574;13.474;2023-04-09T21:21:37;8.00;99.90
15036;DHT22;7615;48.574;13.474;2023-04-09T21:24:04;7.90;99.90
15036;DHT22;7615;48.574;13.474;2023-04-09T21:26:31;7.90;99.90
15036;DHT22;7615;48.574;13.474;2023-04-09T21:28:59;7.90;99.90
